Time;durP1;ratioP1;P1;durP2;ratioP2;P2;SDS_P1;SDS_P2;PMS_P1;PMS_P2;Temp;Humidity;BMP_temperature;BMP_pressure;BME280_temperature;BME280_humidity;BME280_pressure;Samples;Min_cycle;Max_cycle;Signal;HPM_P1;HPM_P2
2023/09/21 00:01:23;;;;;;;5.25;2.33;;;18.20;99.90;;;;;;5008845;28;20053;-60
2023/09/21 00:03:49;;;;;;;5.72;2.33;;;18.20;99.90;;;;;;4993692;28;20053;-60
2023/09/21 00:06:17;;;;;;;4.07;2.00;;;18.20;99.90;;;;;;5005899;28;20049;-61
2023/09/21 00:08:45;;;;;;;4.72;1.98;;;18.20;99.90;;;;;;5006545;28;20408;-59
2023/09/21 00:11:10;;;;;;;3.80;2.00;;;18.20;99.90;;;;;;5008668;28;20482;-59
2023/09/21 00:13:39;;;;;;;6.07;1.90;;;18.20;99.90;;;;;;5008740;28;20045;-61
2023/09/21 00:16:09;;;;;;;5.82;2.20;;;18.20;99.90;;;;;;4994980;28;20432;-61
2023/09/21 00:18:35;;;;;;;3.05;1.98;;;18.30;99.90;;;;;;5027015;28;20045;-59
2023/09/21 00:21:05;;;;;;;3.92;1.88;;;18.30;99.90;;;;;;4999142;28;20091;-61
2023/09/21 00:23:31;;;;;;;6.63;2.30;;;18.20;99.90;;;;;;5013880;28;20053;-61
2023/09/21 00:26:00;;;;;;;3.60;2.17;;;18.30;99.90;;;;;;5012167;28;20057;-58
2023/09/21 00:28:27;;;;;;;6.25;2.10;;;18.20;99.90;;;;;;5008321;28;20038;-60
2023/09/21 00:30:57;;;;;;;2.72;1.85;;;18.20;99.90;;;;;;5013313;28;20152;-61
2023/09/21 00:33:28;;;;;;;4.65;2.15;;;18.30;99.90;;;;;;5012149;28;20069;-61
2023/09/21 00:35:55;;;;;;;6.10;2.20;;;18.30;99.90;;;;;;5010317;28;20037;-61
2023/09/21 00:38:22;;;;;;;4.65;1.88;;;18.30;99.90;;;;;;5011103;28;20478;-61
2023/09/21 00:40:48;;;;;;;4.32;2.28;;;18.30;99.90;;;;;;5014406;28;20095;-61
2023/09/21 00:43:24;;;;;;;4.93;1.80;;;18.30;99.90;;;;;;5013359;28;20318;-60
2023/09/21 00:45:53;;;;;;;3.55;2.00;;;18.30;99.90;;;;;;5010673;28;20052;-60
2023/09/21 00:48:25;;;;;;;5.68;2.03;;;18.30;99.90;;;;;;5013421;28;20477;-60
2023/09/21 00:50:54;;;;;;;6.72;1.95;;;18.30;99.90;;;;;;5013264;28;20121;-61
2023/09/21 00:53:21;;;;;;;6.30;2.10;;;18.30;99.90;;;;;;5013083;28;20068;-61
2023/09/21 00:55:57;;;;;;;3.08;1.88;;;18.30;99.90;;;;;;5014950;28;20054;-61
2023/09/21 00:58:23;;;;;;;3.33;2.03;;;18.30;99.90;;;;;;5011332;28;20030;-61
2023/09/21 01:00:51;;;;;;;3.58;2.10;;;18.40;99.90;;;;;;5013276;28;20053;-61
2023/09/21 01:03:17;;;;;;;5.50;1.92;;;18.40;99.90;;;;;;5013217;28;20041;-61
2023/09/21 01:05:45;;;;;;;4.15;1.92;;;18.40;99.90;;;;;;5012969;28;20045;-60
2023/09/21 01:08:13;;;;;;;6.90;2.10;;;18.40;99.90;;;;;;5004083;28;20073;-61
2023/09/21 01:10:44;;;;;;;3.55;1.98;;;18.50;99.90;;;;;;5013654;28;20037;-61
2023/09/21 01:13:12;;;;;;;3.58;2.10;;;18.50;99.90;;;;;;4994963;28;20048;-60
2023/09/21 01:15:42;;;;;;;4.22;2.25;;;18.50;99.90;;;;;;5004713;28;20038;-61
2023/09/21 01:18:08;;;;;;;6.78;2.30;;;18.50;99.90;;;;;;4990860;28;20104;-61
2023/09/21 01:20:34;;;;;;;3.95;1.80;;;18.50;99.90;;;;;;5011499;28;21024;-58
2023/09/21 01:23:14;;;;;;;5.10;2.10;;;18.60;99.90;;;;;;4984753;28;20046;-59
2023/09/21 01:25:42;;;;;;;4.93;1.90;;;18.60;99.90;;;;;;4998776;28;20088;-58
2023/09/21 01:28:09;;;;;;;6.00;1.90;;;18.60;99.90;;;;;;5004620;28;20050;-62
2023/09/21 01:30:39;;;;;;;3.97;1.90;;;18.60;99.90;;;;;;5004443;28;20129;-61
2023/09/21 01:33:07;;;;;;;5.90;2.08;;;18.60;99.90;;;;;;4995970;28;20490;-59
2023/09/21 01:35:34;;;;;;;6.68;2.20;;;18.70;99.90;;;;;;5007334;28;20140;-61
2023/09/21 01:38:00;;;;;;;4.88;2.10;;;18.70;99.90;;;;;;5004566;28;20077;-59
2023/09/21 01:40:25;;;;;;;3.28;2.08;;;18.70;99.90;;;;;;5006218;28;20724;-61
2023/09/21 01:42:51;;;;;;;4.28;2.20;;;18.70;99.90;;;;;;4988268;28;20072;-61
2023/09/21 01:45:17;;;;;;;4.07;1.98;;;18.70;99.90;;;;;;4999405;28;20050;-61
2023/09/21 01:47:46;;;;;;;4.72;2.05;;;18.70;99.90;;;;;;5005725;28;20048;-60
2023/09/21 01:50:15;;;;;;;4.53;2.25;;;18.70;99.90;;;;;;5007453;28;20506;-61
2023/09/21 01:52:41;;;;;;;3.38;2.13;;;18.70;99.90;;;;;;5007217;28;20096;-60
2023/09/21 01:55:10;;;;;;;5.78;2.00;;;18.70;99.90;;;;;;5007935;28;20398;-60
2023/09/21 01:57:40;;;;;;;6.75;2.40;;;18.70;99.90;;;;;;5009638;28;20033;-62
2023/09/21 02:00:19;;;;;;;5.78;2.30;;;18.70;99.90;;;;;;5009345;28;20104;-61
2023/09/21 02:02:47;;;;;;;4.75;2.38;;;18.70;99.90;;;;;;5007676;28;20041;-61
2023/09/21 02:05:13;;;;;;;4.80;2.25;;;18.70;99.90;;;;;;5010011;28;20050;-56
2023/09/21 02:07:40;;;;;;;3.53;2.22;;;18.70;99.90;;;;;;4993998;28;20037;-60
2023/09/21 02:10:09;;;;;;;5.72;2.28;;;18.70;99.90;;;;;;5022915;28;20068;-61
2023/09/21 02:12:39;;;;;;;11.18;2.08;;;18.70;99.90;;;;;;5010114;28;20127;-59
2023/09/21 02:15:12;;;;;;;6.05;2.05;;;18.60;99.90;;;;;;5011052;28;20029;-61
2023/09/21 02:17:41;;;;;;;5.47;2.17;;;18.60;99.90;;;;;;5012180;28;20068;-61
2023/09/21 02:20:14;;;;;;;2.80;2.00;;;18.60;99.90;;;;;;5011535;28;20042;-60
2023/09/21 02:22:47;;;;;;;4.53;2.35;;;18.60;99.90;;;;;;5010626;28;20184;-61
2023/09/21 02:25:13;;;;;;;4.03;2.25;;;18.60;99.90;;;;;;5010845;28;20117;-61
2023/09/21 02:27:40;;;;;;;5.30;2.15;;;18.60;99.90;;;;;;5008035;28;20037;-60
2023/09/21 02:30:16;;;;;;;4.93;2.40;;;18.50;99.90;;;;;;5009169;28;20092;-60
2023/09/21 02:32:42;;;;;;;3.92;2.00;;;18.50;99.90;;;;;;5010437;28;20041;-62
2023/09/21 02:35:11;;;;;;;2.83;2.30;;;18.50;99.90;;;;;;5007550;28;20080;-61
2023/09/21 02:37:37;;;;;;;3.22;1.80;;;18.50;99.90;;;;;;5012711;28;20096;-58
2023/09/21 02:40:06;;;;;;;3.28;1.98;;;18.50;99.90;;;;;;5011002;28;20436;-58
2023/09/21 02:42:32;;;;;;;4.00;2.10;;;18.40;99.90;;;;;;5006811;28;20435;-61
2023/09/21 02:44:58;;;;;;;3.53;2.30;;;18.40;99.90;;;;;;5013220;28;20040;-60
2023/09/21 02:47:24;;;;;;;3.28;2.00;;;18.40;99.90;;;;;;5012440;28;20488;-61
2023/09/21 02:49:51;;;;;;;5.97;2.00;;;18.40;99.90;;;;;;4993398;28;20042;-59
2023/09/21 02:52:17;;;;;;;6.07;2.30;;;18.40;99.90;;;;;;5010734;28;20037;-61
2023/09/21 02:54:42;;;;;;;3.25;2.05;;;18.40;99.90;;;;;;5011014;28;20115;-61
2023/09/21 02:57:09;;;;;;;5.25;2.20;;;18.40;99.90;;;;;;4977644;28;20038;-61
2023/09/21 02:59:35;;;;;;;3.83;1.92;;;18.40;99.90;;;;;;5012054;28;20068;-61
2023/09/21 03:02:00;;;;;;;3.65;2.20;;;18.40;99.90;;;;;;5010942;28;20056;-60
2023/09/21 03:04:26;;;;;;;3.78;1.90;;;18.40;99.90;;;;;;5012690;28;20045;-61
2023/09/21 03:06:55;;;;;;;3.88;2.22;;;18.40;99.90;;;;;;4992921;28;20183;-59
2023/09/21 03:09:22;;;;;;;3.30;1.77;;;18.40;99.90;;;;;;5010471;28;20080;-61
2023/09/21 03:11:48;;;;;;;5.78;1.90;;;18.50;99.90;;;;;;5007736;28;20037;-61
2023/09/21 03:14:14;;;;;;;2.97;2.03;;;18.50;99.90;;;;;;5010245;28;20164;-61
2023/09/21 03:16:44;;;;;;;5.28;2.17;;;18.50;99.90;;;;;;5012018;28;20049;-61
2023/09/21 03:19:09;;;;;;;3.55;1.90;;;18.60;99.90;;;;;;5009358;28;20177;-61
2023/09/21 03:21:35;;;;;;;2.72;1.77;;;18.60;99.90;;;;;;5012214;28;20047;-61
2023/09/21 03:24:02;;;;;;;2.60;1.80;;;18.60;99.90;;;;;;4995842;28;20029;-61
2023/09/21 03:26:28;;;;;;;3.97;2.13;;;18.60;99.90;;;;;;5014893;28;20121;-59
2023/09/21 03:28:54;;;;;;;3.95;1.90;;;18.70;99.90;;;;;;5016028;28;20133;-60
2023/09/21 03:31:20;;;;;;;3.40;1.75;;;18.70;99.90;;;;;;4997607;28;22350;-60
2023/09/21 03:33:46;;;;;;;4.53;2.10;;;18.70;99.90;;;;;;4998638;28;20042;-61
2023/09/21 03:36:13;;;;;;;8.52;2.10;;;18.70;99.90;;;;;;5008705;28;20045;-60
2023/09/21 03:38:43;;;;;;;3.08;1.63;;;18.70;99.90;;;;;;4997064;28;20056;-62
2023/09/21 03:41:10;;;;;;;2.72;1.80;;;18.70;99.90;;;;;;5008915;28;20056;-61
2023/09/21 03:43:36;;;;;;;3.47;1.67;;;18.70;99.90;;;;;;5009971;28;20045;-61
2023/09/21 03:46:02;;;;;;;4.45;1.83;;;18.70;99.90;;;;;;4978408;28;20157;-59
2023/09/21 03:48:28;;;;;;;3.30;2.05;;;18.60;99.90;;;;;;4992959;28;20481;-60
2023/09/21 03:50:55;;;;;;;6.25;2.30;;;18.70;99.90;;;;;;5010028;28;20600;-60
2023/09/21 03:53:21;;;;;;;5.03;2.00;;;18.70;99.90;;;;;;5009259;28;20049;-60
2023/09/21 03:55:47;;;;;;;7.38;2.05;;;18.70;99.90;;;;;;4993573;28;20068;-59
2023/09/21 03:58:14;;;;;;;7.95;2.35;;;18.60;99.90;;;;;;4973701;28;20105;-61
2023/09/21 04:00:41;;;;;;;2.65;1.90;;;18.60;99.90;;;;;;5007925;28;20480;-61
2023/09/21 04:03:11;;;;;;;3.72;1.88;;;18.70;99.90;;;;;;4997607;28;20098;-61
2023/09/21 04:05:39;;;;;;;3.20;1.90;;;18.70;99.90;;;;;;5011711;28;20034;-62
2023/09/21 04:08:05;;;;;;;3.17;1.90;;;18.70;99.90;;;;;;5011608;28;20037;-61
2023/09/21 04:10:32;;;;;;;6.53;2.08;;;18.70;99.90;;;;;;5012169;28;21095;-59
2023/09/21 04:12:58;;;;;;;4.68;1.70;;;18.70;99.90;;;;;;5009651;28;20524;-61
2023/09/21 04:15:25;;;;;;;7.82;2.30;;;18.70;99.90;;;;;;5012094;28;20494;-59
2023/09/21 04:17:51;;;;;;;3.58;1.75;;;18.70;99.90;;;;;;5013874;28;20159;-61
2023/09/21 04:20:18;;;;;;;2.90;2.00;;;18.70;99.90;;;;;;5014862;28;20976;-62
2023/09/21 04:22:45;;;;;;;3.50;2.00;;;18.70;99.90;;;;;;5014893;28;20127;-61
2023/09/21 04:25:14;;;;;;;6.82;2.00;;;18.70;99.90;;;;;;5013919;28;20426;-61
2023/09/21 04:27:49;;;;;;;5.85;1.83;;;18.70;99.90;;;;;;5011403;28;20144;-60
2023/09/21 04:30:17;;;;;;;5.47;2.15;;;18.70;99.90;;;;;;5012262;28;20038;-60
2023/09/21 04:32:46;;;;;;;4.35;1.70;;;18.70;99.90;;;;;;5027639;28;20045;-61
2023/09/21 04:35:17;;;;;;;3.67;2.00;;;18.70;99.90;;;;;;5015204;28;20567;-60
2023/09/21 04:37:44;;;;;;;3.10;2.00;;;18.70;99.90;;;;;;5011704;28;20049;-61
2023/09/21 04:40:11;;;;;;;3.70;1.88;;;18.60;99.90;;;;;;5012464;28;20858;-61
2023/09/21 04:42:41;;;;;;;10.07;2.38;;;18.60;99.90;;;;;;5011998;28;20095;-61
2023/09/21 04:45:09;;;;;;;3.17;1.92;;;18.50;99.90;;;;;;5014845;28;20042;-60
2023/09/21 04:47:43;;;;;;;3.72;1.90;;;18.50;99.90;;;;;;5013173;28;24598;-60
2023/09/21 04:50:12;;;;;;;6.43;2.00;;;18.50;99.90;;;;;;5012958;28;20038;-60
2023/09/21 04:52:38;;;;;;;6.18;2.55;;;18.50;99.90;;;;;;5014567;28;20045;-59
2023/09/21 04:55:08;;;;;;;5.57;2.03;;;18.50;99.90;;;;;;5011451;28;20044;-60
2023/09/21 04:57:34;;;;;;;3.05;2.13;;;18.40;99.90;;;;;;5008280;28;20069;-60
2023/09/21 05:00:00;;;;;;;3.63;2.30;;;18.40;99.90;;;;;;5013861;28;20134;-62
2023/09/21 05:02:26;;;;;;;3.70;2.08;;;18.40;99.90;;;;;;5013691;28;20041;-60
2023/09/21 05:04:52;;;;;;;4.55;2.00;;;18.40;99.90;;;;;;4995695;28;20034;-61
2023/09/21 05:07:19;;;;;;;3.10;1.98;;;18.40;99.90;;;;;;5012050;28;20164;-61
2023/09/21 05:09:47;;;;;;;3.47;1.83;;;18.30;99.90;;;;;;5009325;28;20057;-60
2023/09/21 05:12:16;;;;;;;3.50;1.88;;;18.40;99.90;;;;;;5001773;28;20179;-61
2023/09/21 05:14:42;;;;;;;4.68;2.10;;;18.30;99.90;;;;;;4992745;28;20116;-59
2023/09/21 05:17:07;;;;;;;2.47;1.90;;;18.30;99.90;;;;;;5011228;28;20143;-61
2023/09/21 05:19:33;;;;;;;2.67;2.00;;;18.30;99.90;;;;;;5005903;28;20038;-60
2023/09/21 05:22:04;;;;;;;4.22;2.03;;;18.30;99.90;;;;;;5010098;28;20045;-61
2023/09/21 05:24:30;;;;;;;6.28;2.30;;;18.30;99.90;;;;;;5011077;28;20084;-59
2023/09/21 05:26:56;;;;;;;5.18;2.40;;;18.30;99.90;;;;;;4989083;28;20038;-61
2023/09/21 05:29:23;;;;;;;3.10;2.22;;;18.20;99.90;;;;;;4995424;28;20037;-59
2023/09/21 05:31:51;;;;;;;3.15;1.90;;;18.20;99.90;;;;;;5005338;28;20764;-60
2023/09/21 05:34:17;;;;;;;2.72;2.00;;;18.30;99.90;;;;;;5001521;28;20116;-59
2023/09/21 05:36:54;;;;;;;3.28;2.17;;;18.30;99.90;;;;;;4982974;28;20045;-60
2023/09/21 05:39:20;;;;;;;5.18;2.17;;;18.30;99.90;;;;;;5020339;28;20471;-60
2023/09/21 05:41:49;;;;;;;5.70;1.95;;;18.30;99.90;;;;;;5006379;28;20076;-60
2023/09/21 05:44:15;;;;;;;6.15;1.90;;;18.30;99.90;;;;;;4993550;28;20500;-61
2023/09/21 05:46:41;;;;;;;4.68;2.10;;;18.30;99.90;;;;;;5022543;28;20128;-61
2023/09/21 05:49:07;;;;;;;4.80;2.22;;;18.30;99.90;;;;;;5006517;28;20037;-61
2023/09/21 05:51:36;;;;;;;4.65;2.00;;;18.30;99.90;;;;;;5007913;28;20061;-60
2023/09/21 05:54:03;;;;;;;4.13;2.28;;;18.30;99.90;;;;;;5007093;28;20050;-59
2023/09/21 05:56:30;;;;;;;3.67;2.03;;;18.30;99.90;;;;;;4994804;28;20568;-60
2023/09/21 05:58:56;;;;;;;2.70;1.90;;;18.30;99.90;;;;;;4985281;28;20763;-61
2023/09/21 06:01:22;;;;;;;3.20;1.95;;;18.30;99.90;;;;;;5008103;28;20497;-61
2023/09/21 06:03:48;;;;;;;2.40;2.00;;;18.30;99.90;;;;;;5000139;28;20187;-63
2023/09/21 06:06:14;;;;;;;2.22;1.80;;;18.30;99.90;;;;;;5007705;28;20045;-63
2023/09/21 06:08:40;;;;;;;3.78;1.98;;;18.30;99.90;;;;;;5013465;28;20053;-64
2023/09/21 06:11:06;;;;;;;12.15;2.15;;;18.40;99.90;;;;;;5015078;28;20034;-62
2023/09/21 06:13:32;;;;;;;5.63;1.92;;;18.40;99.90;;;;;;5011546;28;20110;-61
2023/09/21 06:15:59;;;;;;;5.25;2.08;;;18.40;99.90;;;;;;5011735;28;20042;-62
2023/09/21 06:18:25;;;;;;;3.42;1.90;;;18.40;99.90;;;;;;5014991;28;20069;-64
2023/09/21 06:20:54;;;;;;;5.22;2.15;;;18.40;99.90;;;;;;5015239;28;20104;-63
2023/09/21 06:23:19;;;;;;;6.07;1.92;;;18.50;99.90;;;;;;5018819;28;20057;-63
2023/09/21 06:25:46;;;;;;;3.20;1.88;;;18.50;99.90;;;;;;5012334;28;20725;-64
2023/09/21 06:28:11;;;;;;;4.18;1.77;;;18.50;99.90;;;;;;5009301;28;20054;-62
2023/09/21 06:30:37;;;;;;;5.60;2.10;;;18.50;99.90;;;;;;5001288;28;20428;-61
2023/09/21 06:33:03;;;;;;;5.75;2.10;;;18.50;99.90;;;;;;5012449;28;20512;-62
2023/09/21 06:35:30;;;;;;;5.78;1.90;;;18.40;99.90;;;;;;5015404;28;20093;-63
2023/09/21 06:37:55;;;;;;;3.92;1.90;;;18.40;99.90;;;;;;5014269;28;20107;-61
2023/09/21 06:40:23;;;;;;;3.53;2.25;;;18.40;99.90;;;;;;5012888;28;20117;-64
2023/09/21 06:42:49;;;;;;;3.42;1.85;;;18.40;99.90;;;;;;5013213;28;20083;-63
2023/09/21 06:45:15;;;;;;;2.30;1.80;;;18.40;99.90;;;;;;5003726;28;20477;-60
2023/09/21 06:47:42;;;;;;;5.22;2.20;;;18.30;99.90;;;;;;5013371;28;20029;-62
2023/09/21 06:50:11;;;;;;;4.03;2.10;;;18.30;99.90;;;;;;5010443;28;20077;-64
2023/09/21 06:52:37;;;;;;;5.35;1.95;;;18.30;99.90;;;;;;5014076;28;20123;-62
2023/09/21 06:55:05;;;;;;;2.78;1.92;;;18.30;99.90;;;;;;5012845;28;20042;-64
2023/09/21 06:57:36;;;;;;;6.00;2.10;;;18.30;99.90;;;;;;5014832;28;20508;-64
2023/09/21 07:00:02;;;;;;;4.75;2.22;;;18.30;99.90;;;;;;5031452;28;20033;-62
2023/09/21 07:02:28;;;;;;;5.00;1.90;;;18.30;99.90;;;;;;5018217;28;20045;-63
2023/09/21 07:04:54;;;;;;;6.80;2.40;;;18.30;99.90;;;;;;5016819;28;20554;-64
2023/09/21 07:07:21;;;;;;;4.13;1.95;;;18.30;99.90;;;;;;5013052;28;20051;-64
2023/09/21 07:09:47;;;;;;;4.60;2.25;;;18.20;99.90;;;;;;5011609;28;20046;-64
2023/09/21 07:12:12;;;;;;;5.80;2.40;;;18.20;99.90;;;;;;5012921;28;20469;-62
2023/09/21 07:14:39;;;;;;;3.33;2.20;;;18.10;99.90;;;;;;5013464;28;20045;-63
2023/09/21 07:17:05;;;;;;;3.28;2.00;;;18.10;99.90;;;;;;5013792;28;20057;-62
2023/09/21 07:19:31;;;;;;;4.60;2.25;;;18.10;99.90;;;;;;5012266;28;20050;-64
2023/09/21 07:21:57;;;;;;;3.45;2.13;;;18.00;99.90;;;;;;5015917;28;20042;-64
2023/09/21 07:24:23;;;;;;;6.05;2.40;;;18.00;99.90;;;;;;5013855;28;20048;-64
2023/09/21 07:26:49;;;;;;;6.75;2.40;;;17.90;99.90;;;;;;5013118;28;20050;-64
2023/09/21 07:29:17;;;;;;;5.82;2.40;;;17.90;99.90;;;;;;5010365;28;20413;-60
2023/09/21 07:31:43;;;;;;;5.50;2.35;;;17.90;99.90;;;;;;5011497;28;20613;-63
2023/09/21 07:34:10;;;;;;;4.90;2.65;;;17.90;99.90;;;;;;4994472;28;20115;-64
2023/09/21 07:36:37;;;;;;;3.63;2.28;;;17.80;99.90;;;;;;5001700;28;20589;-63
2023/09/21 07:39:05;;;;;;;5.93;2.63;;;17.80;99.90;;;;;;5011601;28;20038;-64
2023/09/21 07:41:31;;;;;;;4.30;2.30;;;17.80;99.90;;;;;;5013803;28;20124;-62
2023/09/21 07:43:57;;;;;;;4.60;2.30;;;17.80;99.90;;;;;;5012968;28;20091;-64
2023/09/21 07:46:23;;;;;;;5.57;2.35;;;17.70;99.90;;;;;;5012788;28;20462;-64
2023/09/21 07:48:52;;;;;;;5.78;2.38;;;17.80;99.90;;;;;;5011975;28;20045;-63
2023/09/21 07:51:19;;;;;;;8.00;2.70;;;17.70;99.90;;;;;;5010748;28;20132;-62
2023/09/21 07:53:45;;;;;;;5.38;2.72;;;17.70;99.90;;;;;;5018512;28;20046;-62
2023/09/21 07:56:13;;;;;;;4.65;2.40;;;17.70;99.90;;;;;;5016575;28;20050;-63
2023/09/21 07:58:39;;;;;;;4.35;2.33;;;17.70;99.90;;;;;;5014945;28;20037;-63
2023/09/21 08:01:05;;;;;;;9.85;2.33;;;17.60;99.90;;;;;;5016452;28;20154;-64
2023/09/21 08:03:31;;;;;;;6.90;2.75;;;17.60;99.90;;;;;;5031257;28;20034;-63
2023/09/21 08:05:59;;;;;;;6.70;2.63;;;17.60;99.90;;;;;;5017527;28;20537;-64
2023/09/21 08:08:25;;;;;;;5.82;2.30;;;17.60;99.90;;;;;;5033532;28;20449;-64
2023/09/21 08:10:52;;;;;;;4.40;2.33;;;17.60;99.90;;;;;;5015020;28;20124;-64
2023/09/21 08:13:19;;;;;;;3.67;2.50;;;17.50;99.90;;;;;;5014522;28;20087;-64
2023/09/21 08:15:46;;;;;;;3.08;2.58;;;17.50;99.90;;;;;;5016193;28;20045;-64
2023/09/21 08:18:12;;;;;;;3.40;2.20;;;17.50;99.90;;;;;;5011063;28;20045;-62
2023/09/21 08:20:41;;;;;;;3.55;2.47;;;17.50;99.90;;;;;;5016042;28;20041;-64
2023/09/21 08:23:07;;;;;;;4.75;2.60;;;17.50;99.90;;;;;;5015845;28;20099;-64
2023/09/21 08:25:38;;;;;;;5.93;2.78;;;17.50;99.90;;;;;;5015394;28;20559;-64
2023/09/21 08:28:04;;;;;;;5.63;3.10;;;17.50;99.90;;;;;;5015705;28;20033;-64
2023/09/21 08:30:31;;;;;;;7.63;2.88;;;17.50;99.90;;;;;;5021032;28;20034;-64
2023/09/21 08:32:57;;;;;;;5.40;2.90;;;17.50;99.90;;;;;;5017373;28;20532;-59
2023/09/21 08:35:24;;;;;;;6.43;3.00;;;17.50;99.90;;;;;;5014962;28;20424;-59
2023/09/21 08:37:50;;;;;;;5.25;2.97;;;17.40;99.90;;;;;;5008092;28;20075;-60
2023/09/21 08:40:17;;;;;;;7.72;3.15;;;17.40;99.90;;;;;;5010698;28;20412;-59
2023/09/21 08:42:46;;;;;;;5.35;2.83;;;17.40;99.90;;;;;;5009384;28;20056;-59
2023/09/21 08:45:13;;;;;;;4.75;2.90;;;17.40;99.90;;;;;;5011424;28;21930;-58
2023/09/21 08:47:40;;;;;;;4.90;3.05;;;17.40;99.90;;;;;;5001980;28;20127;-59
2023/09/21 08:50:09;;;;;;;5.57;3.33;;;17.40;99.90;;;;;;4993414;28;20482;-59
2023/09/21 08:52:36;;;;;;;4.07;2.50;;;17.40;99.90;;;;;;5014202;28;20531;-58
2023/09/21 08:55:02;;;;;;;2.35;1.27;;;17.40;99.90;;;;;;5013003;28;20039;-60
2023/09/21 08:57:28;;;;;;;2.67;1.10;;;17.30;99.90;;;;;;5012648;28;20865;-59
2023/09/21 08:59:58;;;;;;;1.58;1.00;;;17.20;99.90;;;;;;5012758;28;20128;-59
2023/09/21 09:02:24;;;;;;;1.77;0.70;;;17.10;99.90;;;;;;5016152;28;20470;-58
2023/09/21 09:04:51;;;;;;;1.27;0.88;;;17.00;99.90;;;;;;5009229;28;20045;-60
2023/09/21 09:07:18;;;;;;;0.93;0.68;;;16.90;99.90;;;;;;5013900;28;20402;-59
2023/09/21 09:09:47;;;;;;;3.33;0.90;;;16.90;99.90;;;;;;5014688;28;20048;-59
2023/09/21 09:12:23;;;;;;;1.52;0.80;;;16.70;99.90;;;;;;5013102;28;20242;-60
2023/09/21 09:14:50;;;;;;;2.83;0.95;;;16.60;99.90;;;;;;5016166;28;20597;-59
2023/09/21 09:17:17;;;;;;;1.00;0.80;;;16.60;99.90;;;;;;5014435;28;20478;-59
2023/09/21 09:19:43;;;;;;;1.67;0.77;;;16.60;99.90;;;;;;5011806;28;20041;-59
2023/09/21 09:22:16;;;;;;;1.00;0.70;;;16.50;99.90;;;;;;4994420;28;20050;-60
2023/09/21 09:24:47;;;;;;;0.90;0.77;;;16.50;99.90;;;;;;5009818;28;20061;-57
2023/09/21 09:27:14;;;;;;;0.80;0.70;;;16.50;99.90;;;;;;5007963;28;20129;-59
2023/09/21 09:30:00;;;;;;;1.95;0.90;;;16.50;99.90;;;;;;5009833;28;20505;-59
2023/09/21 09:32:35;;;;;;;2.00;1.00;;;16.50;99.90;;;;;;5007998;28;20414;-58
2023/09/21 09:35:11;;;;;;;2.20;1.00;;;16.50;99.90;;;;;;5012787;28;20626;-60
2023/09/21 09:37:37;;;;;;;1.80;1.00;;;16.50;99.90;;;;;;5013792;28;20077;-59
2023/09/21 09:40:09;;;;;;;1.95;1.00;;;16.50;99.90;;;;;;5014028;28;20077;-59
2023/09/21 09:42:40;;;;;;;2.78;1.00;;;16.50;99.90;;;;;;5019884;28;20112;-58
2023/09/21 09:45:11;;;;;;;4.80;1.23;;;16.50;99.90;;;;;;5013950;28;20041;-58
2023/09/21 09:47:39;;;;;;;2.15;1.00;;;16.40;99.90;;;;;;5015111;28;20528;-59
2023/09/21 09:50:09;;;;;;;1.40;1.15;;;16.40;99.90;;;;;;5007442;28;20206;-59
2023/09/21 09:52:40;;;;;;;2.05;0.98;;;16.40;99.90;;;;;;5009371;28;20030;-60
2023/09/21 09:55:12;;;;;;;1.93;1.20;;;16.40;99.90;;;;;;5011082;28;20041;-59
2023/09/21 09:57:41;;;;;;;1.90;1.17;;;16.40;99.90;;;;;;4999900;28;20308;-61
2023/09/21 10:00:15;;;;;;;1.50;0.90;;;16.40;99.90;;;;;;5009862;28;20037;-59
2023/09/21 10:02:44;;;;;;;3.72;1.10;;;16.30;99.90;;;;;;5011696;28;20045;-59
2023/09/21 10:05:12;;;;;;;1.58;1.02;;;16.30;99.90;;;;;;5008039;28;20120;-59
2023/09/21 10:07:38;;;;;;;1.13;1.00;;;16.30;99.90;;;;;;5008205;28;20516;-59
2023/09/21 10:10:08;;;;;;;1.00;0.88;;;16.30;99.90;;;;;;5013876;28;20037;-59
2023/09/21 10:12:34;;;;;;;0.90;0.73;;;16.30;99.90;;;;;;5011460;28;20038;-59
2023/09/21 10:15:03;;;;;;;0.80;0.75;;;16.20;99.90;;;;;;5016604;28;20126;-58
2023/09/21 10:17:29;;;;;;;2.05;0.80;;;16.20;99.90;;;;;;5015047;28;20041;-59
2023/09/21 10:20:14;;;;;;;1.60;0.80;;;16.10;99.90;;;;;;5012862;28;20614;-59
2023/09/21 10:22:44;;;;;;;0.93;0.70;;;16.10;99.90;;;;;;5011579;28;20052;-59
2023/09/21 10:25:15;;;;;;;0.93;0.70;;;16.10;99.90;;;;;;5014865;28;20096;-58
2023/09/21 10:27:46;;;;;;;1.23;0.80;;;16.10;99.90;;;;;;5012976;28;20086;-58
2023/09/21 10:30:16;;;;;;;1.17;0.80;;;16.10;99.90;;;;;;5012711;28;20858;-59
2023/09/21 10:32:48;;;;;;;0.75;0.73;;;16.10;99.90;;;;;;5011739;28;20099;-59
2023/09/21 10:35:42;;;;;;;1.02;0.70;;;16.20;99.90;;;;;;5016389;28;20065;-60
2023/09/21 10:38:15;;;;;;;1.90;0.70;;;16.20;99.90;;;;;;5016350;28;20161;-58
2023/09/21 10:40:41;;;;;;;1.48;0.70;;;16.20;99.90;;;;;;5016931;28;20037;-59
2023/09/21 10:43:37;;;;;;;1.08;0.75;;;16.20;99.90;;;;;;5017678;28;20045;-59
2023/09/21 10:46:21;;;;;;;0.80;0.70;;;16.20;99.90;;;;;;5017274;28;20619;-60
2023/09/21 10:49:19;;;;;;;1.58;1.00;;;16.30;99.90;;;;;;5019537;28;20049;-58
2023/09/21 10:51:46;;;;;;;1.92;0.90;;;16.30;99.90;;;;;;5017949;28;20582;-60
2023/09/21 10:54:12;;;;;;;1.38;0.93;;;16.30;99.90;;;;;;5016831;28;20498;-59
2023/09/21 10:56:38;;;;;;;1.50;0.90;;;16.30;99.90;;;;;;5006005;28;20049;-59
2023/09/21 10:59:06;;;;;;;1.75;0.90;;;16.30;99.90;;;;;;4988948;28;20072;-59
2023/09/21 11:01:32;;;;;;;1.42;0.90;;;16.30;99.90;;;;;;5016919;28;20469;-58
2023/09/21 11:03:58;;;;;;;2.88;1.10;;;16.30;99.90;;;;;;5032435;28;20085;-60
2023/09/21 11:06:25;;;;;;;1.83;1.00;;;16.30;99.90;;;;;;5012910;28;20041;-59
2023/09/21 11:08:52;;;;;;;1.10;0.88;;;16.30;99.90;;;;;;4985013;28;20143;-60
2023/09/21 11:11:22;;;;;;;2.92;1.10;;;16.40;99.90;;;;;;5013220;28;20046;-59
2023/09/21 11:13:54;;;;;;;1.50;1.15;;;16.40;99.90;;;;;;5013877;28;20045;-60
2023/09/21 11:16:21;;;;;;;1.55;1.27;;;16.50;99.90;;;;;;5018733;28;20397;-59
2023/09/21 11:18:48;;;;;;;3.30;1.10;;;16.50;99.90;;;;;;5013855;28;20366;-59
2023/09/21 11:21:16;;;;;;;2.03;1.30;;;16.60;99.90;;;;;;5014704;28;20156;-60
2023/09/21 11:23:45;;;;;;;3.97;1.35;;;16.60;99.90;;;;;;5015864;28;20469;-58
2023/09/21 11:26:11;;;;;;;1.88;1.20;;;16.60;99.90;;;;;;5015286;28;20037;-59
2023/09/21 11:28:38;;;;;;;1.23;1.13;;;16.60;99.90;;;;;;5011291;28;20502;-58
2023/09/21 11:31:08;;;;;;;1.20;1.10;;;16.50;99.90;;;;;;5015402;28;20091;-60
2023/09/21 11:33:34;;;;;;;3.45;1.10;;;16.50;99.90;;;;;;5014000;28;20443;-58
2023/09/21 11:36:01;;;;;;;4.75;1.10;;;16.50;99.90;;;;;;5006916;28;20057;-59
2023/09/21 11:38:33;;;;;;;1.52;1.00;;;16.60;99.90;;;;;;5023144;28;20049;-59
2023/09/21 11:40:59;;;;;;;2.80;1.30;;;16.60;99.90;;;;;;5008767;28;20235;-58
2023/09/21 11:43:25;;;;;;;1.20;0.90;;;16.60;99.90;;;;;;5009470;28;20041;-59
2023/09/21 11:45:52;;;;;;;1.73;0.95;;;16.60;99.90;;;;;;5008131;28;20100;-60
2023/09/21 11:48:21;;;;;;;1.25;0.95;;;16.50;99.90;;;;;;5007360;28;20077;-60
2023/09/21 11:50:48;;;;;;;1.48;0.80;;;16.50;99.90;;;;;;5010171;28;20041;-58
2023/09/21 11:53:16;;;;;;;1.63;0.90;;;16.50;99.90;;;;;;5006017;28;20061;-59
2023/09/21 11:55:43;;;;;;;4.32;1.10;;;16.50;99.90;;;;;;5004568;28;20086;-60
2023/09/21 11:58:14;;;;;;;1.55;0.90;;;16.60;99.90;;;;;;5007957;28;20136;-60
2023/09/21 12:01:06;;;;;;;1.15;0.95;;;16.60;99.90;;;;;;5005468;28;20060;-58
2023/09/21 12:03:33;;;;;;;2.55;0.80;;;16.60;99.90;;;;;;5010291;28;20110;-59
2023/09/21 12:05:59;;;;;;;1.40;0.70;;;16.60;99.90;;;;;;5009653;28;20046;-59
2023/09/21 12:08:25;;;;;;;1.13;0.80;;;16.60;99.90;;;;;;5007103;28;20045;-59
2023/09/21 12:10:52;;;;;;;2.72;0.90;;;16.60;99.90;;;;;;4995021;28;20041;-59
2023/09/21 12:13:19;;;;;;;1.08;0.90;;;16.60;99.90;;;;;;5009662;28;20045;-60
2023/09/21 12:15:45;;;;;;;3.20;1.20;;;16.50;99.90;;;;;;5006466;28;20926;-59
2023/09/21 12:18:11;;;;;;;1.55;0.98;;;16.50;99.90;;;;;;5008420;28;20200;-59
2023/09/21 12:20:38;;;;;;;2.42;1.00;;;16.50;99.90;;;;;;4996287;28;21003;-59
2023/09/21 12:23:06;;;;;;;1.13;1.00;;;16.50;99.90;;;;;;5006070;28;20056;-59
2023/09/21 12:25:33;;;;;;;2.38;1.10;;;16.60;99.90;;;;;;5008277;28;20176;-59
2023/09/21 12:27:58;;;;;;;1.48;1.20;;;16.60;99.90;;;;;;5001489;28;20026;-58
2023/09/21 12:30:24;;;;;;;1.15;0.98;;;16.70;99.90;;;;;;4999194;28;20607;-58
2023/09/21 12:32:50;;;;;;;1.85;1.00;;;16.70;99.90;;;;;;5003719;28;20873;-60
2023/09/21 12:35:19;;;;;;;3.22;1.00;;;16.80;99.90;;;;;;5000920;28;20239;-59
2023/09/21 12:37:45;;;;;;;0.90;0.90;;;16.90;99.90;;;;;;5003838;28;22627;-60
2023/09/21 12:40:12;;;;;;;1.38;0.80;;;16.90;99.90;;;;;;5019684;28;20083;-59
2023/09/21 12:42:42;;;;;;;0.77;0.68;;;17.00;99.90;;;;;;5005826;28;20404;-59
2023/09/21 12:45:12;;;;;;;1.48;0.90;;;16.90;99.90;;;;;;5005700;28;20448;-59
2023/09/21 12:47:39;;;;;;;2.78;1.30;;;16.90;99.90;;;;;;5007901;28;20057;-59
2023/09/21 12:50:06;;;;;;;5.75;1.50;;;16.90;99.90;;;;;;5009138;28;20042;-60